sensor_id;sensor_type;location;lat;lon;timestamp;pressure;altitude;pressure_sealevel;temperature;humidity
70250;BME280;57644;48.416;-123.374;2023-01-29T00:01:36;102190.56;;;-0.74;86.60
70250;BME280;57644;48.416;-123.374;2023-01-29T00:04:07;102195.43;;;-0.57;85.02
70250;BME280;57644;48.416;-123.374;2023-01-29T00:06:38;102198.97;;;-0.65;83.36
70250;BME280;57644;48.416;-123.374;2023-01-29T00:09:08;102201.51;;;-0.79;80.43
70250;BME280;57644;48.416;-123.374;2023-01-29T00:11:39;102204.98;;;-1.21;75.23
70250;BME280;57644;48.416;-123.374;2023-01-29T00:14:09;102203.75;;;-0.75;72.49
70250;BME280;57644;48.416;-123.374;2023-01-29T00:16:40;102201.77;;;-0.90;62.60
70250;BME280;57644;48.416;-123.374;2023-01-29T00:19:10;102196.57;;;-0.95;58.98
70250;BME280;57644;48.416;-123.374;2023-01-29T00:21:41;102204.36;;;-1.04;55.43
70250;BME280;57644;48.416;-123.374;2023-01-29T00:24:11;102204.61;;;-1.00;58.04
70250;BME280;57644;48.416;-123.374;2023-01-29T00:26:42;102202.92;;;-1.14;55.15
70250;BME280;57644;48.416;-123.374;2023-01-29T00:29:12;102208.59;;;-1.42;51.36
70250;BME280;57644;48.416;-123.374;2023-01-29T00:31:44;102212.39;;;-1.66;51.65
70250;BME280;57644;48.416;-123.374;2023-01-29T00:34:14;102215.20;;;-1.49;51.69
70250;BME280;57644;48.416;-123.374;2023-01-29T00:36:44;102218.92;;;-1.58;53.39
70250;BME280;57644;48.416;-123.374;2023-01-29T00:39:14;102215.51;;;-1.70;53.44
70250;BME280;57644;48.416;-123.374;2023-01-29T00:41:45;102225.63;;;-1.66;52.33
70250;BME280;57644;48.416;-123.374;2023-01-29T00:44:16;102229.60;;;-1.97;51.51
70250;BME280;57644;48.416;-123.374;2023-01-29T00:46:46;102244.44;;;-1.98;52.15
70250;BME280;57644;48.416;-123.374;2023-01-29T00:49:17;102240.46;;;-1.83;52.92
70250;BME280;57644;48.416;-123.374;2023-01-29T00:51:47;102246.30;;;-1.98;52.99
70250;BME280;57644;48.416;-123.374;2023-01-29T00:54:17;102246.13;;;-2.11;51.67
70250;BME280;57644;48.416;-123.374;2023-01-29T00:56:48;102249.51;;;-2.11;51.59
70250;BME280;57644;48.416;-123.374;2023-01-29T00:59:19;102263.97;;;-2.11;52.02
70250;BME280;57644;48.416;-123.374;2023-01-29T01:01:49;102259.13;;;-2.01;52.12
70250;BME280;57644;48.416;-123.374;2023-01-29T01:04:20;102266.35;;;-1.90;52.41
70250;BME280;57644;48.416;-123.374;2023-01-29T01:06:50;102269.00;;;-2.29;51.47
70250;BME280;57644;48.416;-123.374;2023-01-29T01:09:21;102271.31;;;-2.15;52.09
70250;BME280;57644;48.416;-123.374;2023-01-29T01:11:51;102272.67;;;-2.32;51.59
70250;BME280;57644;48.416;-123.374;2023-01-29T01:14:22;102278.46;;;-2.17;51.81
70250;BME280;57644;48.416;-123.374;2023-01-29T01:16:53;102283.60;;;-1.95;53.79
70250;BME280;57644;48.416;-123.374;2023-01-29T01:19:23;102296.86;;;-2.76;53.28
70250;BME280;57644;48.416;-123.374;2023-01-29T01:21:54;102296.42;;;-2.40;53.87
70250;BME280;57644;48.416;-123.374;2023-01-29T01:24:24;102294.23;;;-2.45;54.40
70250;BME280;57644;48.416;-123.374;2023-01-29T01:26:55;102280.54;;;-2.64;53.73
70250;BME280;57644;48.416;-123.374;2023-01-29T01:29:25;102288.29;;;-2.80;53.49
70250;BME280;57644;48.416;-123.374;2023-01-29T01:31:56;102293.63;;;-2.70;54.26
70250;BME280;57644;48.416;-123.374;2023-01-29T01:34:27;102296.72;;;-2.47;54.81
70250;BME280;57644;48.416;-123.374;2023-01-29T01:36:57;102302.61;;;-2.75;53.12
70250;BME280;57644;48.416;-123.374;2023-01-29T01:39:27;102290.68;;;-2.82;53.03
70250;BME280;57644;48.416;-123.374;2023-01-29T01:41:58;102302.69;;;-2.89;53.01
70250;BME280;57644;48.416;-123.374;2023-01-29T01:47:00;102295.49;;;-3.32;53.53
70250;BME280;57644;48.416;-123.374;2023-01-29T01:49:30;102308.45;;;-3.29;52.44
70250;BME280;57644;48.416;-123.374;2023-01-29T01:52:00;102315.40;;;-3.28;51.89
70250;BME280;57644;48.416;-123.374;2023-01-29T01:54:32;102332.30;;;-3.36;52.04
70250;BME280;57644;48.416;-123.374;2023-01-29T01:57:05;102327.09;;;-3.49;51.75
70250;BME280;57644;48.416;-123.374;2023-01-29T01:59:32;102335.37;;;-3.45;51.77
70250;BME280;57644;48.416;-123.374;2023-01-29T02:02:03;102340.01;;;-3.63;51.85
70250;BME280;57644;48.416;-123.374;2023-01-29T02:04:33;102345.99;;;-3.52;52.83
70250;BME280;57644;48.416;-123.374;2023-01-29T02:07:05;102338.46;;;-3.73;51.58
70250;BME280;57644;48.416;-123.374;2023-01-29T02:09:38;102343.67;;;-4.11;51.69
70250;BME280;57644;48.416;-123.374;2023-01-29T02:12:07;102347.78;;;-3.57;52.33
70250;BME280;57644;48.416;-123.374;2023-01-29T02:14:36;102349.31;;;-3.67;50.54
70250;BME280;57644;48.416;-123.374;2023-01-29T02:17:08;102355.21;;;-3.83;51.09
70250;BME280;57644;48.416;-123.374;2023-01-29T02:19:46;102356.35;;;-3.94;51.07
70250;BME280;57644;48.416;-123.374;2023-01-29T02:27:11;102361.23;;;-4.29;50.74
70250;BME280;57644;48.416;-123.374;2023-01-29T02:29:47;102361.60;;;-4.06;51.53
70250;BME280;57644;48.416;-123.374;2023-01-29T02:32:16;102369.21;;;-4.62;50.81
70250;BME280;57644;48.416;-123.374;2023-01-29T02:34:47;102368.16;;;-4.51;51.63
70250;BME280;57644;48.416;-123.374;2023-01-29T02:37:12;102385.91;;;-4.55;51.63
70250;BME280;57644;48.416;-123.374;2023-01-29T02:39:48;102388.09;;;-4.59;51.31
70250;BME280;57644;48.416;-123.374;2023-01-29T02:42:15;102391.71;;;-4.70;51.65
70250;BME280;57644;48.416;-123.374;2023-01-29T02:44:47;102387.52;;;-4.64;51.71
70250;BME280;57644;48.416;-123.374;2023-01-29T02:47:17;102399.25;;;-4.42;51.66
70250;BME280;57644;48.416;-123.374;2023-01-29T02:49:48;102408.48;;;-4.40;51.01
70250;BME280;57644;48.416;-123.374;2023-01-29T02:52:17;102411.56;;;-4.38;50.99
70250;BME280;57644;48.416;-123.374;2023-01-29T02:54:49;102420.48;;;-4.37;51.44
70250;BME280;57644;48.416;-123.374;2023-01-29T02:57:19;102427.82;;;-4.58;50.32
70250;BME280;57644;48.416;-123.374;2023-01-29T02:59:49;102445.39;;;-4.46;51.29
70250;BME280;57644;48.416;-123.374;2023-01-29T03:02:20;102444.34;;;-4.40;50.70
70250;BME280;57644;48.416;-123.374;2023-01-29T03:04:51;102451.87;;;-4.57;51.72
70250;BME280;57644;48.416;-123.374;2023-01-29T03:07:24;102451.67;;;-4.52;51.41
70250;BME280;57644;48.416;-123.374;2023-01-29T03:09:52;102452.68;;;-4.50;51.13
70250;BME280;57644;48.416;-123.374;2023-01-29T03:12:22;102452.48;;;-4.38;51.06
70250;BME280;57644;48.416;-123.374;2023-01-29T03:14:50;102452.43;;;-4.55;51.45
70250;BME280;57644;48.416;-123.374;2023-01-29T03:17:23;102446.02;;;-4.44;51.27
70250;BME280;57644;48.416;-123.374;2023-01-29T03:19:51;102447.62;;;-4.66;49.49
70250;BME280;57644;48.416;-123.374;2023-01-29T03:22:22;102446.80;;;-4.99;49.63
70250;BME280;57644;48.416;-123.374;2023-01-29T03:24:56;102449.12;;;-4.78;49.67
70250;BME280;57644;48.416;-123.374;2023-01-29T03:27:26;102461.69;;;-4.58;50.38
70250;BME280;57644;48.416;-123.374;2023-01-29T03:29:54;102459.54;;;-4.52;50.70
70250;BME280;57644;48.416;-123.374;2023-01-29T03:32:25;102465.40;;;-4.51;50.57
70250;BME280;57644;48.416;-123.374;2023-01-29T03:34:59;102467.65;;;-4.60;49.85
70250;BME280;57644;48.416;-123.374;2023-01-29T03:37:28;102468.06;;;-4.69;49.68
70250;BME280;57644;48.416;-123.374;2023-01-29T03:39:56;102467.25;;;-4.77;50.21
70250;BME280;57644;48.416;-123.374;2023-01-29T03:42:31;102472.60;;;-4.80;50.07
70250;BME280;57644;48.416;-123.374;2023-01-29T03:45:03;102487.06;;;-4.83;50.41
70250;BME280;57644;48.416;-123.374;2023-01-29T03:47:35;102494.85;;;-5.02;51.04
70250;BME280;57644;48.416;-123.374;2023-01-29T03:50:02;102495.02;;;-4.84;51.02
70250;BME280;57644;48.416;-123.374;2023-01-29T03:52:36;102510.95;;;-4.61;51.22
70250;BME280;57644;48.416;-123.374;2023-01-29T03:55:05;102508.80;;;-4.53;50.37
70250;BME280;57644;48.416;-123.374;2023-01-29T03:57:35;102515.34;;;-4.70;50.59
70250;BME280;57644;48.416;-123.374;2023-01-29T04:00:05;102522.81;;;-4.89;50.50
70250;BME280;57644;48.416;-123.374;2023-01-29T04:02:36;102533.33;;;-4.97;50.41
70250;BME280;57644;48.416;-123.374;2023-01-29T04:05:07;102532.52;;;-4.94;51.78
70250;BME280;57644;48.416;-123.374;2023-01-29T04:07:33;102552.27;;;-5.03;50.61
70250;BME280;57644;48.416;-123.374;2023-01-29T04:10:08;102552.94;;;-5.06;50.44
70250;BME280;57644;48.416;-123.374;2023-01-29T04:12:39;102568.87;;;-4.95;50.50
70250;BME280;57644;48.416;-123.374;2023-01-29T04:15:06;102573.78;;;-5.03;51.37
70250;BME280;57644;48.416;-123.374;2023-01-29T04:17:38;102581.85;;;-5.29;51.20
70250;BME280;57644;48.416;-123.374;2023-01-29T04:20:07;102577.24;;;-5.01;51.29
70250;BME280;57644;48.416;-123.374;2023-01-29T04:22:38;102588.30;;;-5.16;50.32
70250;BME280;57644;48.416;-123.374;2023-01-29T04:25:09;102585.20;;;-4.84;50.42
70250;BME280;57644;48.416;-123.374;2023-01-29T04:27:44;102598.77;;;-5.05;50.05
70250;BME280;57644;48.416;-123.374;2023-01-29T04:30:18;102599.43;;;-4.94;49.25
70250;BME280;57644;48.416;-123.374;2023-01-29T04:32:47;102606.19;;;-4.81;49.75
70250;BME280;57644;48.416;-123.374;2023-01-29T04:35:18;102616.23;;;-5.20;49.77
70250;BME280;57644;48.416;-123.374;2023-01-29T04:37:54;102621.79;;;-4.85;50.42
70250;BME280;57644;48.416;-123.374;2023-01-29T04:40:17;102626.67;;;-4.96;51.00
70250;BME280;57644;48.416;-123.374;2023-01-29T04:42:46;102644.12;;;-5.07;50.76
70250;BME280;57644;48.416;-123.374;2023-01-29T04:45:18;102637.11;;;-5.37;51.55
70250;BME280;57644;48.416;-123.374;2023-01-29T04:47:47;102635.68;;;-5.42;51.15
70250;BME280;57644;48.416;-123.374;2023-01-29T04:50:15;102641.58;;;-5.25;50.78
70250;BME280;57644;48.416;-123.374;2023-01-29T04:52:48;102650.75;;;-5.55;49.89
70250;BME280;57644;48.416;-123.374;2023-01-29T04:55:19;102655.29;;;-5.82;49.80
70250;BME280;57644;48.416;-123.374;2023-01-29T04:57:53;102658.24;;;-5.82;50.09
70250;BME280;57644;48.416;-123.374;2023-01-29T05:00:18;102665.36;;;-5.53;51.06
70250;BME280;57644;48.416;-123.374;2023-01-29T05:02:47;102674.16;;;-5.31;51.45
70250;BME280;57644;48.416;-123.374;2023-01-29T05:05:18;102675.26;;;-5.27;51.59
70250;BME280;57644;48.416;-123.374;2023-01-29T05:07:48;102676.33;;;-5.53;51.74
70250;BME280;57644;48.416;-123.374;2023-01-29T05:10:20;102682.55;;;-5.42;51.74
70250;BME280;57644;48.416;-123.374;2023-01-29T05:12:51;102683.27;;;-5.29;51.99
70250;BME280;57644;48.416;-123.374;2023-01-29T05:15:23;102686.59;;;-5.47;51.46
70250;BME280;57644;48.416;-123.374;2023-01-29T05:17:50;102689.70;;;-5.35;51.47
70250;BME280;57644;48.416;-123.374;2023-01-29T05:20:21;102697.91;;;-5.23;51.46
70250;BME280;57644;48.416;-123.374;2023-01-29T05:22:51;102714.47;;;-5.42;51.37
70250;BME280;57644;48.416;-123.374;2023-01-29T05:25:24;102710.15;;;-5.61;51.51
70250;BME280;57644;48.416;-123.374;2023-01-29T05:27:53;102719.13;;;-5.56;51.18
70250;BME280;57644;48.416;-123.374;2023-01-29T05:30:23;102723.44;;;-5.40;51.77
70250;BME280;57644;48.416;-123.374;2023-01-29T05:32:53;102732.10;;;-5.49;52.01
70250;BME280;57644;48.416;-123.374;2023-01-29T05:35:24;102735.88;;;-5.47;52.16
70250;BME280;57644;48.416;-123.374;2023-01-29T05:37:55;102742.42;;;-5.40;52.11
70250;BME280;57644;48.416;-123.374;2023-01-29T05:40:25;102743.97;;;-5.34;52.18
70250;BME280;57644;48.416;-123.374;2023-01-29T05:42:56;102746.41;;;-5.23;51.99
70250;BME280;57644;48.416;-123.374;2023-01-29T05:45:27;102742.17;;;-5.78;51.56
70250;BME280;57644;48.416;-123.374;2023-01-29T05:47:58;102742.84;;;-6.22;52.41
70250;BME280;57644;48.416;-123.374;2023-01-29T05:50:28;102753.48;;;-6.19;51.84
70250;BME280;57644;48.416;-123.374;2023-01-29T05:52:59;102760.28;;;-5.97;51.62
70250;BME280;57644;48.416;-123.374;2023-01-29T05:55:29;102772.84;;;-5.82;51.37
70250;BME280;57644;48.416;-123.374;2023-01-29T05:58:00;102780.58;;;-6.06;51.90
70250;BME280;57644;48.416;-123.374;2023-01-29T06:00:30;102782.26;;;-5.75;52.04
70250;BME280;57644;48.416;-123.374;2023-01-29T06:03:01;102796.07;;;-5.80;52.08
70250;BME280;57644;48.416;-123.374;2023-01-29T06:05:32;102801.33;;;-5.70;52.53
70250;BME280;57644;48.416;-123.374;2023-01-29T06:08:03;102806.51;;;-5.89;52.58
70250;BME280;57644;48.416;-123.374;2023-01-29T06:10:34;102805.22;;;-5.83;52.18
70250;BME280;57644;48.416;-123.374;2023-01-29T06:13:04;102807.03;;;-6.05;52.03
70250;BME280;57644;48.416;-123.374;2023-01-29T06:15:34;102811.13;;;-5.75;52.09
70250;BME280;57644;48.416;-123.374;2023-01-29T06:18:05;102812.22;;;-5.70;52.83
70250;BME280;57644;48.416;-123.374;2023-01-29T06:20:37;102815.57;;;-5.79;53.16
70250;BME280;57644;48.416;-123.374;2023-01-29T06:23:06;102821.82;;;-6.21;53.01
70250;BME280;57644;48.416;-123.374;2023-01-29T06:25:37;102820.86;;;-6.19;52.95
70250;BME280;57644;48.416;-123.374;2023-01-29T06:28:08;102823.51;;;-5.96;53.30
70250;BME280;57644;48.416;-123.374;2023-01-29T06:30:38;102827.36;;;-5.68;53.20
70250;BME280;57644;48.416;-123.374;2023-01-29T06:33:09;102830.66;;;-5.83;53.19
70250;BME280;57644;48.416;-123.374;2023-01-29T06:35:39;102844.23;;;-6.26;53.61
70250;BME280;57644;48.416;-123.374;2023-01-29T06:38:10;102850.84;;;-6.06;52.66
70250;BME280;57644;48.416;-123.374;2023-01-29T06:40:41;102856.71;;;-5.96;52.17
70250;BME280;57644;48.416;-123.374;2023-01-29T06:43:11;102851.57;;;-6.23;52.52
70250;BME280;57644;48.416;-123.374;2023-01-29T06:45:47;102855.34;;;-6.07;52.84
70250;BME280;57644;48.416;-123.374;2023-01-29T06:48:13;102862.34;;;-6.09;53.50
70250;BME280;57644;48.416;-123.374;2023-01-29T06:50:43;102864.60;;;-5.91;53.58
70250;BME280;57644;48.416;-123.374;2023-01-29T06:53:15;102872.83;;;-6.12;53.78
70250;BME280;57644;48.416;-123.374;2023-01-29T06:55:51;102872.94;;;-6.10;53.98
70250;BME280;57644;48.416;-123.374;2023-01-29T06:58:15;102883.38;;;-6.35;53.49
70250;BME280;57644;48.416;-123.374;2023-01-29T07:00:46;102882.54;;;-6.38;53.45
70250;BME280;57644;48.416;-123.374;2023-01-29T07:03:16;102892.21;;;-6.11;53.58
70250;BME280;57644;48.416;-123.374;2023-01-29T07:05:50;102897.15;;;-5.99;53.40
70250;BME280;57644;48.416;-123.374;2023-01-29T07:08:18;102900.16;;;-6.09;53.15
70250;BME280;57644;48.416;-123.374;2023-01-29T07:10:48;102901.49;;;-5.99;53.74
70250;BME280;57644;48.416;-123.374;2023-01-29T07:13:19;102902.69;;;-5.89;54.34
70250;BME280;57644;48.416;-123.374;2023-01-29T07:15:49;102911.00;;;-5.94;54.28
70250;BME280;57644;48.416;-123.374;2023-01-29T07:18:20;102902.76;;;-6.15;53.66
70250;BME280;57644;48.416;-123.374;2023-01-29T07:20:52;102909.58;;;-5.76;53.96
70250;BME280;57644;48.416;-123.374;2023-01-29T07:23:22;102912.21;;;-5.70;53.86
70250;BME280;57644;48.416;-123.374;2023-01-29T07:25:52;102907.70;;;-5.86;53.34
70250;BME280;57644;48.416;-123.374;2023-01-29T07:28:23;102915.70;;;-6.09;53.99
70250;BME280;57644;48.416;-123.374;2023-01-29T07:30:56;102913.44;;;-6.07;53.64
70250;BME280;57644;48.416;-123.374;2023-01-29T07:33:25;102914.27;;;-6.07;52.84
70250;BME280;57644;48.416;-123.374;2023-01-29T07:35:55;102912.93;;;-6.14;52.43
70250;BME280;57644;48.416;-123.374;2023-01-29T07:38:26;102919.25;;;-6.28;52.64
70250;BME280;57644;48.416;-123.374;2023-01-29T07:40:56;102935.02;;;-6.36;52.36
70250;BME280;57644;48.416;-123.374;2023-01-29T07:43:27;102942.06;;;-6.56;53.61
70250;BME280;57644;48.416;-123.374;2023-01-29T07:46:01;102923.51;;;-6.29;53.48
70250;BME280;57644;48.416;-123.374;2023-01-29T07:48:28;102939.40;;;-6.33;53.31
70250;BME280;57644;48.416;-123.374;2023-01-29T07:50:59;102939.44;;;-6.60;53.78
70250;BME280;57644;48.416;-123.374;2023-01-29T07:53:29;102949.64;;;-6.71;53.57
70250;BME280;57644;48.416;-123.374;2023-01-29T07:56:00;102955.31;;;-7.22;53.42
70250;BME280;57644;48.416;-123.374;2023-01-29T07:58:31;102962.91;;;-6.96;53.33
70250;BME280;57644;48.416;-123.374;2023-01-29T08:01:05;102972.67;;;-6.57;53.39
70250;BME280;57644;48.416;-123.374;2023-01-29T08:03:32;102967.14;;;-6.66;53.61
70250;BME280;57644;48.416;-123.374;2023-01-29T08:06:03;102964.40;;;-6.57;53.07
70250;BME280;57644;48.416;-123.374;2023-01-29T08:08:33;102958.75;;;-6.50;52.78
70250;BME280;57644;48.416;-123.374;2023-01-29T08:11:04;102973.84;;;-6.31;51.81
70250;BME280;57644;48.416;-123.374;2023-01-29T08:13:35;102972.16;;;-6.29;51.51
70250;BME280;57644;48.416;-123.374;2023-01-29T08:16:06;102976.34;;;-6.26;51.81
70250;BME280;57644;48.416;-123.374;2023-01-29T08:18:37;102975.60;;;-6.64;51.62
70250;BME280;57644;48.416;-123.374;2023-01-29T08:21:08;102990.73;;;-6.48;52.03
70250;BME280;57644;48.416;-123.374;2023-01-29T08:23:38;102979.19;;;-6.57;51.85
70250;BME280;57644;48.416;-123.374;2023-01-29T08:26:08;103000.23;;;-6.79;51.70
70250;BME280;57644;48.416;-123.374;2023-01-29T08:28:38;102998.33;;;-6.53;51.41
70250;BME280;57644;48.416;-123.374;2023-01-29T08:31:15;102999.81;;;-6.32;51.30
70250;BME280;57644;48.416;-123.374;2023-01-29T08:33:40;103003.34;;;-6.42;51.21
70250;BME280;57644;48.416;-123.374;2023-01-29T08:36:10;102998.96;;;-6.36;51.07
70250;BME280;57644;48.416;-123.374;2023-01-29T08:38:41;103013.64;;;-6.47;51.45
70250;BME280;57644;48.416;-123.374;2023-01-29T08:41:12;103008.00;;;-6.59;51.79
70250;BME280;57644;48.416;-123.374;2023-01-29T08:43:42;103009.20;;;-6.41;51.52
70250;BME280;57644;48.416;-123.374;2023-01-29T08:46:13;103009.27;;;-6.22;51.88
70250;BME280;57644;48.416;-123.374;2023-01-29T08:48:45;103009.43;;;-6.23;51.86
70250;BME280;57644;48.416;-123.374;2023-01-29T08:51:14;103016.42;;;-6.28;51.34
70250;BME280;57644;48.416;-123.374;2023-01-29T08:53:45;103027.64;;;-6.34;52.17
70250;BME280;57644;48.416;-123.374;2023-01-29T08:56:16;103021.98;;;-6.03;52.22
70250;BME280;57644;48.416;-123.374;2023-01-29T08:58:46;103045.18;;;-6.22;51.21
70250;BME280;57644;48.416;-123.374;2023-01-29T09:01:17;103044.11;;;-6.01;51.25
70250;BME280;57644;48.416;-123.374;2023-01-29T09:03:48;103050.42;;;-5.96;51.58
70250;BME280;57644;48.416;-123.374;2023-01-29T09:06:18;103060.69;;;-5.99;50.78
70250;BME280;57644;48.416;-123.374;2023-01-29T09:08:49;103058.96;;;-5.89;51.33
70250;BME280;57644;48.416;-123.374;2023-01-29T09:11:20;103061.77;;;-5.90;51.32
70250;BME280;57644;48.416;-123.374;2023-01-29T09:13:51;103059.51;;;-5.93;51.36
70250;BME280;57644;48.416;-123.374;2023-01-29T09:16:21;103061.75;;;-5.96;51.00
70250;BME280;57644;48.416;-123.374;2023-01-29T09:18:53;103067.63;;;-6.09;50.50
70250;BME280;57644;48.416;-123.374;2023-01-29T09:21:23;103070.21;;;-6.20;50.40
70250;BME280;57644;48.416;-123.374;2023-01-29T09:23:53;103072.84;;;-6.28;50.56
70250;BME280;57644;48.416;-123.374;2023-01-29T09:26:24;103069.90;;;-6.11;50.88
70250;BME280;57644;48.416;-123.374;2023-01-29T09:28:55;103080.30;;;-6.10;50.51
70250;BME280;57644;48.416;-123.374;2023-01-29T09:31:25;103077.03;;;-6.20;49.95
70250;BME280;57644;48.416;-123.374;2023-01-29T09:34:00;103072.24;;;-6.09;50.41
70250;BME280;57644;48.416;-123.374;2023-01-29T09:36:27;103078.46;;;-6.16;50.17
70250;BME280;57644;48.416;-123.374;2023-01-29T09:38:57;103080.95;;;-6.79;50.01
70250;BME280;57644;48.416;-123.374;2023-01-29T09:41:37;103082.23;;;-6.70;50.16
70250;BME280;57644;48.416;-123.374;2023-01-29T09:44:01;103087.85;;;-6.60;50.77
70250;BME280;57644;48.416;-123.374;2023-01-29T09:46:34;103087.16;;;-6.50;50.55
70250;BME280;57644;48.416;-123.374;2023-01-29T09:49:03;103090.33;;;-6.58;50.29
70250;BME280;57644;48.416;-123.374;2023-01-29T09:51:35;103097.36;;;-6.52;50.40
70250;BME280;57644;48.416;-123.374;2023-01-29T09:54:11;103093.42;;;-6.23;51.29
70250;BME280;57644;48.416;-123.374;2023-01-29T09:56:31;103094.84;;;-6.39;51.13
70250;BME280;57644;48.416;-123.374;2023-01-29T09:59:02;103098.72;;;-6.29;51.64
70250;BME280;57644;48.416;-123.374;2023-01-29T10:01:38;103104.61;;;-6.47;50.51
70250;BME280;57644;48.416;-123.374;2023-01-29T10:04:17;103105.31;;;-6.28;51.15
70250;BME280;57644;48.416;-123.374;2023-01-29T10:06:46;103103.48;;;-6.24;51.21
70250;BME280;57644;48.416;-123.374;2023-01-29T10:11:44;103108.13;;;-6.35;51.57
70250;BME280;57644;48.416;-123.374;2023-01-29T10:14:15;103112.46;;;-6.62;51.74
70250;BME280;57644;48.416;-123.374;2023-01-29T10:16:48;103109.99;;;-6.45;51.79
70250;BME280;57644;48.416;-123.374;2023-01-29T10:19:17;103116.50;;;-6.38;51.93
70250;BME280;57644;48.416;-123.374;2023-01-29T10:21:49;103121.75;;;-6.52;51.75
70250;BME280;57644;48.416;-123.374;2023-01-29T10:24:17;103122.16;;;-6.37;51.74
70250;BME280;57644;48.416;-123.374;2023-01-29T10:26:40;103121.13;;;-6.64;52.05
70250;BME280;57644;48.416;-123.374;2023-01-29T10:29:15;103120.61;;;-6.64;52.49
70250;BME280;57644;48.416;-123.374;2023-01-29T10:31:40;103121.53;;;-6.62;51.70
70250;BME280;57644;48.416;-123.374;2023-01-29T10:34:15;103118.45;;;-6.86;51.77
70250;BME280;57644;48.416;-123.374;2023-01-29T10:36:44;103130.05;;;-7.05;51.73
70250;BME280;57644;48.416;-123.374;2023-01-29T10:39:16;103136.06;;;-6.71;51.77
70250;BME280;57644;48.416;-123.374;2023-01-29T10:41:53;103132.38;;;-6.78;50.96
70250;BME280;57644;48.416;-123.374;2023-01-29T10:44:22;103147.31;;;-6.62;50.86
70250;BME280;57644;48.416;-123.374;2023-01-29T10:46:59;103153.61;;;-6.73;49.48
70250;BME280;57644;48.416;-123.374;2023-01-29T10:49:24;103155.08;;;-6.71;50.10
70250;BME280;57644;48.416;-123.374;2023-01-29T10:51:57;103157.87;;;-6.69;49.42
70250;BME280;57644;48.416;-123.374;2023-01-29T10:54:29;103160.57;;;-6.77;48.41
70250;BME280;57644;48.416;-123.374;2023-01-29T10:56:55;103159.94;;;-7.02;47.68
70250;BME280;57644;48.416;-123.374;2023-01-29T10:59:31;103161.19;;;-6.67;47.81
70250;BME280;57644;48.416;-123.374;2023-01-29T11:01:48;103166.75;;;-6.66;47.11
70250;BME280;57644;48.416;-123.374;2023-01-29T11:04:19;103155.35;;;-6.64;47.07
70250;BME280;57644;48.416;-123.374;2023-01-29T11:06:49;103148.98;;;-6.85;46.95
70250;BME280;57644;48.416;-123.374;2023-01-29T11:09:27;103159.01;;;-6.85;46.73
70250;BME280;57644;48.416;-123.374;2023-01-29T11:11:55;103167.56;;;-6.74;46.72
70250;BME280;57644;48.416;-123.374;2023-01-29T11:14:25;103165.47;;;-6.49;46.77
70250;BME280;57644;48.416;-123.374;2023-01-29T11:16:52;103169.18;;;-6.49;46.73
70250;BME280;57644;48.416;-123.374;2023-01-29T11:19:36;103172.95;;;-6.62;46.32
70250;BME280;57644;48.416;-123.374;2023-01-29T11:21:57;103178.79;;;-6.75;46.72
70250;BME280;57644;48.416;-123.374;2023-01-29T11:24:25;103179.98;;;-6.59;47.06
70250;BME280;57644;48.416;-123.374;2023-01-29T11:26:58;103180.21;;;-6.45;47.31
70250;BME280;57644;48.416;-123.374;2023-01-29T11:29:31;103179.91;;;-6.31;47.29
70250;BME280;57644;48.416;-123.374;2023-01-29T11:31:57;103186.15;;;-6.21;47.62
70250;BME280;57644;48.416;-123.374;2023-01-29T11:34:27;103192.43;;;-6.38;47.33
70250;BME280;57644;48.416;-123.374;2023-01-29T11:36:59;103191.74;;;-6.40;47.48
70250;BME280;57644;48.416;-123.374;2023-01-29T11:39:30;103198.70;;;-6.23;48.12
70250;BME280;57644;48.416;-123.374;2023-01-29T11:42:01;103202.95;;;-6.32;47.57
70250;BME280;57644;48.416;-123.374;2023-01-29T11:44:32;103203.98;;;-6.37;47.25
70250;BME280;57644;48.416;-123.374;2023-01-29T11:49:33;103211.67;;;-6.35;46.99
70250;BME280;57644;48.416;-123.374;2023-01-29T11:52:04;103213.05;;;-6.37;47.21
70250;BME280;57644;48.416;-123.374;2023-01-29T11:54:36;103212.73;;;-6.27;47.09
70250;BME280;57644;48.416;-123.374;2023-01-29T11:57:04;103211.80;;;-6.17;47.47
70250;BME280;57644;48.416;-123.374;2023-01-29T11:59:39;103213.18;;;-6.00;48.55
70250;BME280;57644;48.416;-123.374;2023-01-29T12:02:16;103212.02;;;-5.85;48.64
70250;BME280;57644;48.416;-123.374;2023-01-29T12:04:39;103207.93;;;-6.10;47.07
70250;BME280;57644;48.416;-123.374;2023-01-29T12:07:12;103213.75;;;-5.92;47.69
70250;BME280;57644;48.416;-123.374;2023-01-29T12:09:48;103217.98;;;-5.87;47.78
70250;BME280;57644;48.416;-123.374;2023-01-29T12:12:16;103219.02;;;-5.86;47.65
70250;BME280;57644;48.416;-123.374;2023-01-29T12:14:38;103223.39;;;-5.76;48.43
70250;BME280;57644;48.416;-123.374;2023-01-29T12:17:14;103221.55;;;-5.71;48.41
70250;BME280;57644;48.416;-123.374;2023-01-29T12:19:43;103228.93;;;-5.70;48.52
70250;BME280;57644;48.416;-123.374;2023-01-29T12:22:16;103227.51;;;-5.76;47.95
70250;BME280;57644;48.416;-123.374;2023-01-29T12:24:47;103225.34;;;-5.66;49.06
70250;BME280;57644;48.416;-123.374;2023-01-29T12:27:16;103226.95;;;-5.66;49.12
70250;BME280;57644;48.416;-123.374;2023-01-29T12:29:48;103224.94;;;-5.68;49.33
70250;BME280;57644;48.416;-123.374;2023-01-29T12:32:21;103229.60;;;-5.59;50.26
70250;BME280;57644;48.416;-123.374;2023-01-29T12:34:46;103227.45;;;-6.07;49.80
70250;BME280;57644;48.416;-123.374;2023-01-29T12:37:20;103227.25;;;-5.97;49.86
70250;BME280;57644;48.416;-123.374;2023-01-29T12:39:45;103228.89;;;-5.93;50.25
70250;BME280;57644;48.416;-123.374;2023-01-29T12:42:18;103232.13;;;-5.93;50.37
70250;BME280;57644;48.416;-123.374;2023-01-29T12:47:22;103239.96;;;-5.80;50.00
70250;BME280;57644;48.416;-123.374;2023-01-29T12:49:52;103247.87;;;-5.75;50.64
70250;BME280;57644;48.416;-123.374;2023-01-29T12:52:22;103245.23;;;-5.76;50.18